Mont Saint Michel — FNMT — position and weather

sailwx.info

Track history (hours):
 
Tides and Currents Weather Stations Pressure Air Temp Water Temp Dewpoint Dewpoint Depression Visibility Wind Speed Wind Dir Waves Ship Positions

Mont Saint Michel

Last reported at 2017-Apr-30 14:30 UTC. Time now 2017-Apr-30 14:50 UTC.
Position N 49°17' W 000°15'.

Length 173 m; beam 29 m.

Type: Ship. MMSI: 227023100.

Date/timePositionNaut miles runAvg speedWind from/ knotsBaromVisibWave heightAir tempDewpointWater temp
2017-Apr-30 14:30N 49°17' W 000°15'0 0.0
2017-Apr-30 13:30N 49°17' W 000°15'0 0.0
2017-Apr-30 13:00N 49°17' W 000°15'3 5.4
2017-Apr-30 12:30N 49°20' W 000°14'1019.1
2017-Apr-30 12:01N 49°29' W 000°19'1020.5
2017-Apr-30 11:30N 49°39' W 000°25'1020.7
2017-Apr-30 11:00N 49°48' W 000°31'1121.1
2017-Apr-30 10:30N 49°58' W 000°37'1121.0
2017-Apr-30 10:00N 50°08' W 000°44'1220.7
2017-Apr-30 09:25N 50°18' W 000°52'820.0
2017-Apr-30 09:00N 50°27' W 000°55'918.7
2017-Apr-30 08:31N 50°36' W 000°57'815.9
2017-Apr-30 08:01N 50°43' W 001°01'612.5
2017-Apr-30 07:31N 50°48' W 001°07'1 1.3
2017-Apr-30 07:01N 50°49' W 001°06'0 0.0
2017-Apr-30 06:30N 50°49' W 001°06'0 0.0
2017-Apr-30 06:00N 50°49' W 001°06'0 0.6
2017-Apr-30 05:30N 50°49' W 001°06'611.1
2017-Apr-30 05:01N 50°44' W 001°03'815.6
2017-Apr-30 04:30N 50°36' W 000°59'815.1
2017-Apr-30 04:00N 50°29' W 000°56'612.1
2017-Apr-30 03:30N 50°23' W 000°54'611.3
2017-Apr-30 03:00N 50°18' W 000°50'611.7
2017-Apr-30 02:30N 50°13' W 000°46'611.6
2017-Apr-30 02:00N 50°07' W 000°42'611.3
2017-Apr-30 01:30N 50°02' W 000°39'611.3
2017-Apr-30 01:00N 49°57' W 000°36'611.0
2017-Apr-30 00:30N 49°52' W 000°33'511.0
2017-Apr-30 00:00N 49°47' W 000°30'611.2
2017-Apr-29 23:30N 49°41' W 000°28'611.3
2017-Apr-29 23:00N 49°36' W 000°25'611.2
2017-Apr-29 22:30N 49°31' W 000°22'510.6
2017-Apr-29 22:00N 49°26' W 000°18'510.1
2017-Apr-29 21:30N 49°21' W 000°15'4 7.7
2017-Apr-29 21:00N 49°17' W 000°15'0 0.0
2017-Apr-29 20:30N 49°17' W 000°15'0 0.0
2017-Apr-29 20:00N 49°17' W 000°15'0 0.0
2017-Apr-29 19:30N 49°17' W 000°15'3 5.1
2017-Apr-29 19:00N 49°20' W 000°14'918.6
2017-Apr-29 18:30N 49°29' W 000°18'918.4
2017-Apr-29 18:00N 49°38' W 000°23'917.6
2017-Apr-29 17:30N 49°45' W 000°29'917.6
2017-Apr-29 17:00N 49°53' W 000°35'917.4
2017-Apr-29 16:30N 50°02' W 000°40'917.5
2017-Apr-29 16:00N 50°10' W 000°45'918.3
2017-Apr-29 15:30N 50°19' W 000°48'1020.2
2017-Apr-29 14:59N 50°28' W 000°53'1918.9
2017-Apr-29 14:00N 50°45' W 001°05'3 6.7
2017-Apr-29 13:30N 50°49' W 001°06'0 0.0
2017-Apr-29 13:00N 50°49' W 001°06'0 0.0
2017-Apr-29 12:30N 50°49' W 001°06'0 0.2
2017-Apr-29 12:00N 50°49' W 001°06'510.2
2017-Apr-29 11:30N 50°44' W 001°03'1020.1
2017-Apr-29 11:00N 50°35' W 000°57'1520.6
2017-Apr-29 10:16N 50°20' W 000°50'620.6
2017-Apr-29 10:00N 50°15' W 000°47'1020.1
2017-Apr-29 09:30N 50°06' W 000°42'1019.6
2017-Apr-29 09:01N 49°56' W 000°36'1019.6
2017-Apr-29 08:31N 49°47' W 000°31'1019.8
2017-Apr-29 08:01N 49°38' W 000°26'1020.0
2017-Apr-29 07:30N 49°29' W 000°20'918.4
2017-Apr-29 07:00N 49°20' W 000°14'3 5.7
2017-Apr-29 06:30N 49°17' W 000°15'0 0.0
2017-Apr-29 06:00N 49°17' W 000°15'0 0.0
2017-Apr-29 05:30N 49°17' W 000°15'0 0.0
2017-Apr-29 05:00N 49°17' W 000°15'0 0.1
2017-Apr-29 04:30N 49°17' W 000°15'714.6
2017-Apr-29 04:00N 49°25' W 000°16'815.0
2017-Apr-29 03:30N 49°32' W 000°20'714.8
2017-Apr-29 03:01N 49°38' W 000°24'714.6
2017-Apr-29 02:30N 49°45' W 000°28'714.9
2017-Apr-29 02:01N 49°52' W 000°32'815.3
2017-Apr-29 01:30N 49°59' W 000°36'815.8
2017-Apr-29 01:00N 50°07' W 000°40'916.0
2017-Apr-29 00:28N 50°15' W 000°43'715.8
2017-Apr-29 00:01N 50°22' W 000°46'816.0
2017-Apr-28 23:30N 50°30' W 000°51'816.0
2017-Apr-28 23:00N 50°38' W 000°54'714.8
2017-Apr-28 22:31N 50°43' W 001°01'612.1
2017-Apr-28 22:01N 50°48' W 001°07'1 1.6
2017-Apr-28 21:31N 50°49' W 001°06'0 0.0
2017-Apr-28 21:01N 50°49' W 001°06'0 0.0
2017-Apr-28 20:31N 50°49' W 001°06'0 0.2
2017-Apr-28 20:00N 50°49' W 001°06'611.3
2017-Apr-28 19:31N 50°44' W 001°02'917.9
2017-Apr-28 19:00N 50°35' W 000°56'917.7
2017-Apr-28 18:30N 50°28' W 000°50'918.2
2017-Apr-28 18:00N 50°19' W 000°44'918.5
2017-Apr-28 17:30N 50°10' W 000°41'918.8
2017-Apr-28 17:01N 50°01' W 000°37'1019.1
2017-Apr-28 16:31N 49°52' W 000°32'1019.2
2017-Apr-28 16:01N 49°43' W 000°27'1019.6
2017-Apr-28 15:30N 49°34' W 000°21'1019.3
2017-Apr-28 15:01N 49°25' W 000°16'8 7.9
2017-Apr-28 14:00N 49°17' W 000°15'0 0.0
2017-Apr-28 13:30N 49°17' W 000°15'0 0.0
2017-Apr-28 13:00N 49°17' W 000°15'4 7.1
2017-Apr-28 12:30N 49°21' W 000°14'1019.5
2017-Apr-28 12:00N 49°30' W 000°20'1019.5
2017-Apr-28 11:31N 49°39' W 000°26'1019.8
2017-Apr-28 11:01N 49°48' W 000°32'1020.0
2017-Apr-28 10:31N 49°57' W 000°37'1020.1
2017-Apr-28 10:00N 50°07' W 000°43'1619.6
2017-Apr-28 09:10N 50°22' W 000°53'317.9
2017-Apr-28 09:00N 50°25' W 000°53'918.5
2017-Apr-28 08:30N 50°34' W 000°54'917.7
2017-Apr-28 08:01N 50°42' W 000°58'815.0
2017-Apr-28 07:30N 50°48' W 001°07'1 2.1
2017-Apr-28 07:00N 50°49' W 001°06'0 0.0
2017-Apr-28 06:30N 50°49' W 001°06'0 0.0
2017-Apr-28 06:00N 50°49' W 001°06'0 0.7
2017-Apr-28 05:30N 50°49' W 001°06'611.7
2017-Apr-28 05:00N 50°44' W 001°02'714.7
2017-Apr-28 04:31N 50°37' W 000°58'714.6
2017-Apr-28 04:00N 50°29' W 000°56'1411.1
2017-Apr-28 02:44N 50°16' W 000°49'311.4
2017-Apr-28 02:30N 50°13' W 000°48'611.6
2017-Apr-28 02:00N 50°08' W 000°44'611.7
2017-Apr-28 01:30N 50°03' W 000°41'611.7
2017-Apr-28 01:01N 49°57' W 000°37'611.4
2017-Apr-28 00:30N 49°52' W 000°34'511.0
2017-Apr-28 00:00N 49°47' W 000°31'510.7
2017-Apr-27 23:30N 49°42' W 000°28'510.6
2017-Apr-27 23:00N 49°37' W 000°25'510.5
2017-Apr-27 22:30N 49°32' W 000°21'510.7
2017-Apr-27 22:01N 49°27' W 000°18'510.8
2017-Apr-27 21:31N 49°22' W 000°15'510.2
2017-Apr-27 21:00N 49°17' W 000°15'0 0.1
2017-Apr-27 20:30N 49°17' W 000°15'0 0.0
2017-Apr-27 20:00N 49°17' W 000°15'0 0.0
2017-Apr-27 19:30N 49°17' W 000°15'2 4.0
2017-Apr-27 19:00N 49°19' W 000°15'1019.2
2017-Apr-27 18:30N 49°29' W 000°18'1019.3
2017-Apr-27 18:00N 49°38' W 000°22'918.7
2017-Apr-27 17:31N 49°47' W 000°28'918.3
2017-Apr-27 17:01N 49°55' W 000°33'917.8
2017-Apr-27 16:30N 50°03' W 000°39'2218.2
2017-Apr-27 15:18N 50°24' W 000°51'619.6
2017-Apr-27 15:01N 50°29' W 000°54'1918.9
2017-Apr-27 14:00N 50°46' W 001°06'2 4.7
2017-Apr-27 13:30N 50°49' W 001°06'0 0.0
2017-Apr-27 13:00N 50°49' W 001°06'0 0.0
2017-Apr-27 12:30N 50°49' W 001°06'0 0.1
2017-Apr-27 12:00N 50°49' W 001°06'4 8.7
2017-Apr-27 11:30N 50°44' W 001°04'918.8
2017-Apr-27 11:00N 50°36' W 000°58'1020.5
2017-Apr-27 10:30N 50°26' W 000°52'1420.3
2017-Apr-27 09:49N 50°13' W 000°44'620.2
2017-Apr-27 09:30N 50°07' W 000°41'1019.6
2017-Apr-27 09:00N 49°58' W 000°37'1019.4
2017-Apr-27 08:31N 49°49' W 000°32'1019.2
2017-Apr-27 08:00N 49°40' W 000°27'918.8
2017-Apr-27 07:30N 49°31' W 000°21'918.3
2017-Apr-27 07:00N 49°23' W 000°16'511.0
2017-Apr-27 06:30N 49°17' W 000°15'0 0.0
2017-Apr-27 06:00N 49°17' W 000°15'0 0.0
2017-Apr-27 05:30N 49°17' W 000°15'0 0.0
2017-Apr-27 05:00N 49°17' W 000°15'0 0.1
2017-Apr-27 04:30N 49°17' W 000°15'612.3
2017-Apr-27 04:00N 49°23' W 000°15'714.1
2017-Apr-27 03:30N 49°30' W 000°19'714.7
2017-Apr-27 03:00N 49°37' W 000°23'714.6
2017-Apr-27 02:30N 49°44' W 000°28'714.6
2017-Apr-27 02:00N 49°50' W 000°32'510.7
2017-Apr-27 01:30N 49°55' W 000°34'510.4
2017-Apr-27 01:00N 50°00' W 000°37'510.6
2017-Apr-27 00:30N 50°05' W 000°40'611.4
2017-Apr-26 23:57N 50°11' W 000°44'1216.2
2017-Apr-26 23:12N 50°23' W 000°50'416.6
2017-Apr-26 22:57N 50°27' W 000°52'716.5
2017-Apr-26 22:31N 50°33' W 000°56'715.0
2017-Apr-26 22:00N 50°41' W 000°58'613.0
2017-Apr-26 21:31N 50°45' W 001°05'3 6.4
2017-Apr-26 21:00N 50°49' W 001°06'0 0.0
2017-Apr-26 20:30N 50°49' W 001°06'0 0.0
2017-Apr-26 20:00N 50°49' W 001°06'0 0.0
2017-Apr-26 19:30N 50°49' W 001°06'0 0.0
2017-Apr-26 19:00N 50°49' W 001°06'0 0.0
2017-Apr-26 18:30N 50°49' W 001°06'0 0.2
2017-Apr-26 18:00N 50°49' W 001°06'3 7.0
2017-Apr-26 17:30N 50°45' W 001°05'815.9
2017-Apr-26 17:01N 50°39' W 000°58'1019.7
2017-Apr-26 16:30N 50°29' W 000°54'1519.1
2017-Apr-26 15:42N 50°15' W 000°46'418.7
2017-Apr-26 15:31N 50°11' W 000°44'918.1
2017-Apr-26 15:01N 50°03' W 000°39'815.8
2017-Apr-26 14:30N 49°55' W 000°35'1616.1
2017-Apr-26 13:31N 49°40' W 000°26'918.8
2017-Apr-26 13:01N 49°31' W 000°21'1020.3
2017-Apr-26 12:31N 49°22' W 000°15'5 9.3
2017-Apr-26 12:01N 49°17' W 000°15'0 0.0
2017-Apr-26 11:28N 49°17' W 000°15'0 0.0
2017-Apr-26 10:58N 49°17' W 000°15'0 0.0
2017-Apr-26 10:28N 49°17' W 000°15'0 0.0
2017-Apr-26 09:58N 49°17' W 000°15'0 0.0
2017-Apr-26 09:28N 49°17' W 000°15'0 0.0
2017-Apr-26 08:58N 49°17' W 000°15'0 0.0
2017-Apr-26 08:28N 49°17' W 000°15'0 0.0
2017-Apr-26 07:58N 49°17' W 000°15'0 0.0
2017-Apr-26 07:28N 49°17' W 000°15'0 0.0
2017-Apr-26 06:58N 49°17' W 000°15'0 0.0
2017-Apr-26 06:28N 49°17' W 000°15'0 0.0
2017-Apr-26 06:00N 49°17' W 000°15'0 0.0
2017-Apr-26 05:30N 49°17' W 000°15'3 5.6
2017-Apr-26 05:00N 49°20' W 000°14'815.9
2017-Apr-26 04:30N 49°28' W 000°17'815.3
2017-Apr-26 04:00N 49°35' W 000°21'714.9
2017-Apr-26 03:30N 49°42' W 000°25'815.0
2017-Apr-26 03:00N 49°49' W 000°30'815.0
2017-Apr-26 02:30N 49°56' W 000°34'714.8
2017-Apr-26 02:00N 50°03' W 000°38'714.7
2017-Apr-26 01:30N 50°10' W 000°43'1115.2
2017-Apr-26 00:48N 50°20' W 000°49'615.8
2017-Apr-26 00:26N 50°25' W 000°51'614.7
2017-Apr-26 00:00N 50°31' W 000°55'714.0
2017-Apr-25 23:30N 50°38' W 000°58'612.7
2017-Apr-25 23:00N 50°44' W 001°02'510.7
2017-Apr-25 22:30N 50°48' W 001°07'1 1.7
2017-Apr-25 21:58N 50°49' W 001°06'0 0.0
2017-Apr-25 21:28N 50°49' W 001°06'0 0.0
2017-Apr-25 20:58N 50°49' W 001°06'0 0.1
2017-Apr-25 20:30N 50°49' W 001°06'4 7.9
2017-Apr-25 20:00N 50°45' W 001°05'510.8
2017-Apr-25 19:30N 50°42' W 000°58'611.4
2017-Apr-25 19:00N 50°36' W 000°57'919.0
2017-Apr-25 18:31N 50°27' W 000°51'1319.6
2017-Apr-25 17:50N 50°15' W 000°43'720.1
2017-Apr-25 17:30N 50°09' W 000°41'1020.2
2017-Apr-25 17:00N 49°59' W 000°35'1020.1
2017-Apr-25 16:31N 49°50' W 000°30'1020.1
2017-Apr-25 16:01N 49°40' W 000°25'918.8
2017-Apr-25 15:31N 49°32' W 000°19'1019.1
2017-Apr-25 15:01N 49°22' W 000°15'510.1
2017-Apr-25 14:30N 49°17' W 000°15'0 0.0
2017-Apr-25 13:30N 49°17' W 000°15'0 0.0
2017-Apr-25 13:00N 49°17' W 000°15'1 1.4
2017-Apr-25 12:31N 49°18' W 000°15'918.1
2017-Apr-25 12:01N 49°27' W 000°17'1019.7
2017-Apr-25 11:31N 49°37' W 000°20'918.7
2017-Apr-25 11:01N 49°46' W 000°24'1019.1
2017-Apr-25 10:31N 49°55' W 000°28'1019.3
2017-Apr-25 10:00N 50°04' W 000°33'2320.1
2017-Apr-25 08:53N 50°25' W 000°46'821.7
2017-Apr-25 08:31N 50°32' W 000°53'1020.6
2017-Apr-25 08:01N 50°41' W 001°00'815.8
2017-Apr-25 07:30N 50°48' W 001°07'1 2.2
2017-Apr-25 07:00N 50°49' W 001°06'0 0.0
2017-Apr-25 06:30N 50°49' W 001°06'0 0.0
2017-Apr-25 06:00N 50°49' W 001°06'0 0.5
2017-Apr-25 05:30N 50°49' W 001°06'510.0
2017-Apr-25 05:00N 50°44' W 001°03'713.0
2017-Apr-25 04:30N 50°38' W 000°58'815.4
2017-Apr-25 04:00N 50°31' W 000°54'815.4
2017-Apr-25 03:28N 50°23' W 000°50'815.3
2017-Apr-25 02:58N 50°16' W 000°45'611.3
2017-Apr-25 02:29N 50°11' W 000°43'510.3
2017-Apr-25 02:00N 50°06' W 000°41'510.6
2017-Apr-25 01:30N 50°01' W 000°38'611.0
2017-Apr-25 01:00N 49°56' W 000°35'611.2
2017-Apr-25 00:30N 49°51' W 000°31'611.3
2017-Apr-25 00:00N 49°46' W 000°29'611.4
2017-Apr-24 23:30N 49°40' W 000°26'611.1
2017-Apr-24 23:00N 49°35' W 000°23'510.3
2017-Apr-24 22:30N 49°30' W 000°20'510.2
2017-Apr-24 22:00N 49°26' W 000°17'510.9
2017-Apr-24 21:30N 49°20' W 000°14'3 6.0
2017-Apr-24 21:00N 49°17' W 000°15'0 0.0
2017-Apr-24 20:30N 49°17' W 000°15'0 0.0
2017-Apr-24 20:00N 49°17' W 000°15'0 0.0
2017-Apr-24 19:30N 49°17' W 000°15'1 2.9
2017-Apr-24 19:01N 49°19' W 000°15'1019.1
2017-Apr-24 18:31N 49°28' W 000°17'1019.7
2017-Apr-24 18:01N 49°37' W 000°22'917.6
2017-Apr-24 17:31N 49°46' W 000°27'917.7
2017-Apr-24 17:00N 49°54' W 000°32'1019.4
2017-Apr-24 16:31N 50°03' W 000°37'1019.9
2017-Apr-24 16:00N 50°12' W 000°43'1019.7
2017-Apr-24 15:30N 50°21' W 000°49'1019.3
2017-Apr-24 15:00N 50°31' W 000°53'918.5
2017-Apr-24 14:31N 50°39' W 000°58'1110.6
2017-Apr-24 13:30N 50°49' W 001°06'0 0.0
2017-Apr-24 13:00N 50°49' W 001°06'0 0.0
2017-Apr-24 12:30N 50°49' W 001°06'0 0.1
2017-Apr-24 12:00N 50°49' W 001°06'4 9.0
2017-Apr-24 11:30N 50°44' W 001°04'918.2
2017-Apr-24 11:00N 50°37' W 000°55'1019.1
2017-Apr-24 10:30N 50°30' W 000°46'1019.4
2017-Apr-24 10:00N 50°21' W 000°38'919.0
2017-Apr-24 09:30N 50°12' W 000°33'919.0
2017-Apr-24 09:00N 50°03' W 000°30'918.9
2017-Apr-24 08:30N 49°54' W 000°26'918.8
2017-Apr-24 08:00N 49°45' W 000°22'918.6
2017-Apr-24 07:30N 49°36' W 000°19'919.0
2017-Apr-24 07:00N 49°27' W 000°16'917.8
2017-Apr-24 06:30N 49°18' W 000°15'0 0.9
2017-Apr-24 06:00N 49°17' W 000°15'0 0.0
2017-Apr-24 05:30N 49°17' W 000°15'0 0.0
2017-Apr-24 05:00N 49°17' W 000°15'0 0.2
2017-Apr-24 04:31N 49°17' W 000°15'713.7
2017-Apr-24 04:01N 49°24' W 000°14'815.4
2017-Apr-24 03:31N 49°31' W 000°18'815.4
2017-Apr-24 03:01N 49°39' W 000°22'815.0
2017-Apr-24 02:31N 49°45' W 000°28'815.3
2017-Apr-24 02:01N 49°52' W 000°34'815.3
2017-Apr-24 01:31N 49°59' W 000°38'815.1
2017-Apr-24 01:01N 50°06' W 000°42'815.3
2017-Apr-24 00:31N 50°13' W 000°46'815.5
2017-Apr-24 00:01N 50°21' W 000°49'815.5
2017-Apr-23 23:30N 50°28' W 000°53'815.1
2017-Apr-23 23:01N 50°35' W 000°56'714.8
2017-Apr-23 22:31N 50°42' W 001°01'713.2
2017-Apr-23 22:00N 50°48' W 001°07'1 2.4
2017-Apr-23 21:30N 50°49' W 001°06'0 0.0
2017-Apr-23 21:00N 50°49' W 001°06'0 0.0
2017-Apr-23 20:30N 50°49' W 001°06'0 0.2
2017-Apr-23 20:01N 50°49' W 001°06'4 8.7
2017-Apr-23 19:31N 50°44' W 001°04'918.4
2017-Apr-23 19:00N 50°36' W 000°57'1020.3
2017-Apr-23 18:30N 50°27' W 000°53'1020.3
2017-Apr-23 18:00N 50°17' W 000°47'1020.0
2017-Apr-23 17:30N 50°08' W 000°41'1020.0
2017-Apr-23 17:00N 49°58' W 000°37'1019.8
2017-Apr-23 16:30N 49°49' W 000°31'1019.9
2017-Apr-23 16:00N 49°40' W 000°26'1020.4
2017-Apr-23 15:30N 49°30' W 000°20'1020.0
2017-Apr-23 15:00N 49°21' W 000°15'3 3.5
2017-Apr-23 14:00N 49°17' W 000°15'0 0.0
2017-Apr-23 13:30N 49°17' W 000°15'0 0.0
2017-Apr-23 13:00N 49°17' W 000°15'3 5.3
2017-Apr-23 12:31N 49°20' W 000°14'917.9
2017-Apr-23 12:01N 49°29' W 000°18'918.9
2017-Apr-23 11:31N 49°38' W 000°23'918.8
2017-Apr-23 11:01N 49°46' W 000°28'918.6
2017-Apr-23 10:30N 49°55' W 000°32'1018.6
2017-Apr-23 10:00N 50°04' W 000°36'1418.7
2017-Apr-23 09:15N 50°17' W 000°44'519.0
2017-Apr-23 09:00N 50°22' W 000°47'1020.5
2017-Apr-23 08:31N 50°31' W 000°55'1020.3
2017-Apr-23 08:01N 50°40' W 000°60'817.0
2017-Apr-23 07:30N 50°47' W 001°07'1 2.6
2017-Apr-23 07:00N 50°49' W 001°06'0 0.0
2017-Apr-23 06:30N 50°49' W 001°06'0 0.0
2017-Apr-23 06:00N 50°49' W 001°06'0 0.2
2017-Apr-23 05:30N 50°49' W 001°06'5 9.2
2017-Apr-23 05:01N 50°44' W 001°04'713.3
2017-Apr-23 04:31N 50°39' W 000°59'815.6
2017-Apr-23 04:00N 50°31' W 000°55'810.6
2017-Apr-23 03:16N 50°24' W 000°52'310.9
2017-Apr-23 03:00N 50°21' W 000°50'711.0
2017-Apr-23 02:19N 50°14' W 000°47'411.1
2017-Apr-23 02:00N 50°10' W 000°45'611.2
2017-Apr-23 01:30N 50°05' W 000°42'611.3
2017-Apr-23 01:00N 49°60' W 000°40'611.5
2017-Apr-23 00:30N 49°54' W 000°36'611.9
2017-Apr-23 00:00N 49°49' W 000°33'611.9
2017-Apr-22 23:30N 49°43' W 000°29'611.8
2017-Apr-22 23:00N 49°38' W 000°26'611.9
2017-Apr-22 22:30N 49°32' W 000°22'611.9
2017-Apr-22 22:00N 49°27' W 000°18'611.8
2017-Apr-22 21:30N 49°21' W 000°15'4 8.3
2017-Apr-22 21:00N 49°17' W 000°15'0 0.0
2017-Apr-22 20:30N 49°17' W 000°15'0 0.0
2017-Apr-22 20:00N 49°17' W 000°15'0 0.0
2017-Apr-22 19:30N 49°17' W 000°15'3 6.6
2017-Apr-22 19:00N 49°21' W 000°14'1020.2
2017-Apr-22 18:30N 49°31' W 000°16'917.2
2017-Apr-22 18:00N 49°39' W 000°20'917.2
2017-Apr-22 17:30N 49°47' W 000°24'917.3
2017-Apr-22 17:00N 49°55' W 000°28'917.7
2017-Apr-22 16:30N 50°04' W 000°33'918.6
2017-Apr-22 16:00N 50°13' W 000°38'1019.9
2017-Apr-22 15:30N 50°21' W 000°46'1019.6
2017-Apr-22 15:00N 50°30' W 000°53'1019.2
2017-Apr-22 14:30N 50°39' W 000°57'1111.3
2017-Apr-22 13:30N 50°49' W 001°06'0 0.0
2017-Apr-22 13:00N 50°49' W 001°06'0 0.0
2017-Apr-22 12:30N 50°49' W 001°06'0 0.2
2017-Apr-22 12:01N 50°49' W 001°06'4 7.8
2017-Apr-22 11:31N 50°45' W 001°05'816.8
2017-Apr-22 11:01N 50°38' W 000°58'1019.2
2017-Apr-22 10:30N 50°29' W 000°51'1819.1
2017-Apr-22 09:35N 50°13' W 000°39'219.3
2017-Apr-22 09:30N 50°12' W 000°39'1019.5
2017-Apr-22 09:00N 50°03' W 000°33'1019.6
2017-Apr-22 08:30N 49°53' W 000°28'1020.2
2017-Apr-22 08:01N 49°44' W 000°23'1020.5
2017-Apr-22 07:30N 49°34' W 000°19'1020.6
2017-Apr-22 07:00N 49°24' W 000°16'713.0
2017-Apr-22 06:30N 49°17' W 000°15'0 0.0
2017-Apr-22 06:00N 49°17' W 000°15'0 0.0
2017-Apr-22 05:30N 49°17' W 000°15'0 0.0
2017-Apr-22 05:00N 49°17' W 000°15'0 0.1
2017-Apr-22 04:31N 49°17' W 000°15'714.0
2017-Apr-22 04:01N 49°24' W 000°14'815.2
2017-Apr-22 03:30N 49°31' W 000°19'815.6
2017-Apr-22 03:00N 49°38' W 000°25'815.5
2017-Apr-22 02:31N 49°45' W 000°31'815.2
2017-Apr-22 02:01N 49°52' W 000°35'815.3
2017-Apr-22 01:31N 49°59' W 000°40'815.3
2017-Apr-22 01:00N 50°06' W 000°44'815.3
2017-Apr-22 00:31N 50°13' W 000°48'815.4
2017-Apr-22 00:00N 50°21' W 000°51'815.4
2017-Apr-21 23:30N 50°28' W 000°54'815.1
2017-Apr-21 23:00N 50°35' W 000°57'815.5
2017-Apr-21 22:31N 50°43' W 001°02'612.4
2017-Apr-21 22:01N 50°48' W 001°07'1 2.0
2017-Apr-21 21:31N 50°49' W 001°06'0 0.0
2017-Apr-21 21:01N 50°49' W 001°06'0 0.0
2017-Apr-21 20:30N 50°49' W 001°06'0 0.5
2017-Apr-21 20:01N 50°49' W 001°06'612.0
2017-Apr-21 19:30N 50°43' W 001°02'918.5
2017-Apr-21 19:00N 50°35' W 000°55'1019.1
2017-Apr-21 18:30N 50°26' W 000°49'1019.0
2017-Apr-21 18:00N 50°17' W 000°46'918.9
2017-Apr-21 17:30N 50°08' W 000°42'918.9
2017-Apr-21 17:00N 49°59' W 000°37'918.7
2017-Apr-21 16:30N 49°51' W 000°31'918.9
2017-Apr-21 16:00N 49°42' W 000°26'918.5
2017-Apr-21 15:30N 49°33' W 000°21'918.8
2017-Apr-21 15:00N 49°24' W 000°16'713.7
2017-Apr-21 14:31N 49°17' W 000°15'0 0.0
2017-Apr-21 13:30N 49°17' W 000°15'0 0.0
2017-Apr-21 13:00N 49°17' W 000°15'2 3.3
2017-Apr-21 12:30N 49°19' W 000°15'917.7
2017-Apr-21 12:01N 49°28' W 000°18'919.0
2017-Apr-21 11:31N 49°36' W 000°23'918.9
2017-Apr-21 11:00N 49°45' W 000°27'1019.1
2017-Apr-21 10:30N 49°55' W 000°32'1018.9
2017-Apr-21 10:00N 50°04' W 000°36'918.8
2017-Apr-21 09:30N 50°12' W 000°41'1019.4
2017-Apr-21 09:01N 50°21' W 000°48'1121.1
2017-Apr-21 08:30N 50°31' W 000°53'1020.0
2017-Apr-21 08:00N 50°40' W 000°59'816.9
2017-Apr-21 07:31N 50°47' W 001°07'1 3.0
2017-Apr-21 07:00N 50°49' W 001°06'0 0.0
2017-Apr-21 06:31N 50°49' W 001°06'0 0.0
2017-Apr-21 06:01N 50°49' W 001°06'0 0.1
2017-Apr-21 05:31N 50°49' W 001°06'3 6.6
2017-Apr-21 05:01N 50°45' W 001°05'815.4
2017-Apr-21 04:31N 50°39' W 000°59'815.6
2017-Apr-21 04:00N 50°32' W 000°54'612.0
2017-Apr-21 03:30N 50°26' W 000°52'611.6
2017-Apr-21 03:01N 50°20' W 000°49'611.5
2017-Apr-21 02:30N 50°15' W 000°46'611.5
2017-Apr-21 02:00N 50°09' W 000°43'611.8
2017-Apr-21 01:30N 50°04' W 000°41'611.9
2017-Apr-21 01:00N 49°58' W 000°38'612.1
2017-Apr-21 00:31N 49°52' W 000°36'612.2
2017-Apr-21 00:00N 49°47' W 000°32'612.0
2017-Apr-20 23:31N 49°41' W 000°29'612.1
2017-Apr-20 23:00N 49°35' W 000°25'612.1
2017-Apr-20 22:31N 49°30' W 000°21'612.2
2017-Apr-20 22:00N 49°24' W 000°17'611.9
2017-Apr-20 21:30N 49°19' W 000°15'1 2.8
2017-Apr-20 21:00N 49°17' W 000°15'0 0.0
2017-Apr-20 20:31N 49°17' W 000°15'0 0.0
2017-Apr-20 20:01N 49°17' W 000°15'0 0.0
2017-Apr-20 19:31N 49°17' W 000°15'4 7.4
2017-Apr-20 19:00N 49°21' W 000°14'918.9
2017-Apr-20 18:30N 49°30' W 000°19'816.9
2017-Apr-20 18:00N 49°38' W 000°22'817.0
2017-Apr-20 17:30N 49°47' W 000°24'817.0
2017-Apr-20 17:01N 49°55' W 000°28'918.9
2017-Apr-20 16:31N 50°03' W 000°34'1920.1
2017-Apr-20 15:33N 50°21' W 000°47'219.7
2017-Apr-20 15:28N 50°22' W 000°48'919.4
2017-Apr-20 15:00N 50°30' W 000°53'  
Track history (hours):
 
Tides and Currents Weather Stations Pressure Air Temp Water Temp Dewpoint Dewpoint Depression Visibility Wind Speed Wind Dir Waves Ship Positions

Mont Saint Michel

Last reported at 2017-Apr-30 14:30 UTC. Time now 2017-Apr-30 14:50 UTC.
Position N 49°17' W 000°15'.

Length 173 m; beam 29 m.

Type: Ship. MMSI: 227023100.

Date/timePositionNaut miles runAvg speedWind from/ knotsBaromVisibWave heightAir tempDewpointWater temp
2017-Apr-30 14:30N 49°17' W 000°15'0 0.0
2017-Apr-30 13:30N 49°17' W 000°15'0 0.0
2017-Apr-30 13:00N 49°17' W 000°15'3 5.4
2017-Apr-30 12:30N 49°20' W 000°14'1019.1
2017-Apr-30 12:01N 49°29' W 000°19'1020.5
2017-Apr-30 11:30N 49°39' W 000°25'1020.7
2017-Apr-30 11:00N 49°48' W 000°31'1121.1
2017-Apr-30 10:30N 49°58' W 000°37'1121.0
2017-Apr-30 10:00N 50°08' W 000°44'1220.7
2017-Apr-30 09:25N 50°18' W 000°52'820.0
2017-Apr-30 09:00N 50°27' W 000°55'918.7
2017-Apr-30 08:31N 50°36' W 000°57'815.9
2017-Apr-30 08:01N 50°43' W 001°01'612.5
2017-Apr-30 07:31N 50°48' W 001°07'1 1.3
2017-Apr-30 07:01N 50°49' W 001°06'0 0.0
2017-Apr-30 06:30N 50°49' W 001°06'0 0.0
2017-Apr-30 06:00N 50°49' W 001°06'0 0.6
2017-Apr-30 05:30N 50°49' W 001°06'611.1
2017-Apr-30 05:01N 50°44' W 001°03'815.6
2017-Apr-30 04:30N 50°36' W 000°59'815.1
2017-Apr-30 04:00N 50°29' W 000°56'612.1
2017-Apr-30 03:30N 50°23' W 000°54'611.3
2017-Apr-30 03:00N 50°18' W 000°50'611.7
2017-Apr-30 02:30N 50°13' W 000°46'611.6
2017-Apr-30 02:00N 50°07' W 000°42'611.3
2017-Apr-30 01:30N 50°02' W 000°39'611.3
2017-Apr-30 01:00N 49°57' W 000°36'611.0
2017-Apr-30 00:30N 49°52' W 000°33'511.0
2017-Apr-30 00:00N 49°47' W 000°30'611.2
2017-Apr-29 23:30N 49°41' W 000°28'611.3
2017-Apr-29 23:00N 49°36' W 000°25'611.2
2017-Apr-29 22:30N 49°31' W 000°22'510.6
2017-Apr-29 22:00N 49°26' W 000°18'510.1
2017-Apr-29 21:30N 49°21' W 000°15'4 7.7
2017-Apr-29 21:00N 49°17' W 000°15'0 0.0
2017-Apr-29 20:30N 49°17' W 000°15'0 0.0
2017-Apr-29 20:00N 49°17' W 000°15'0 0.0
2017-Apr-29 19:30N 49°17' W 000°15'3 5.1
2017-Apr-29 19:00N 49°20' W 000°14'918.6
2017-Apr-29 18:30N 49°29' W 000°18'918.4
2017-Apr-29 18:00N 49°38' W 000°23'917.6
2017-Apr-29 17:30N 49°45' W 000°29'917.6
2017-Apr-29 17:00N 49°53' W 000°35'917.4
2017-Apr-29 16:30N 50°02' W 000°40'917.5
2017-Apr-29 16:00N 50°10' W 000°45'918.3
2017-Apr-29 15:30N 50°19' W 000°48'1020.2
2017-Apr-29 14:59N 50°28' W 000°53'1918.9
2017-Apr-29 14:00N 50°45' W 001°05'3 6.7
2017-Apr-29 13:30N 50°49' W 001°06'0 0.0
2017-Apr-29 13:00N 50°49' W 001°06'0 0.0
2017-Apr-29 12:30N 50°49' W 001°06'0 0.2
2017-Apr-29 12:00N 50°49' W 001°06'510.2
2017-Apr-29 11:30N 50°44' W 001°03'1020.1
2017-Apr-29 11:00N 50°35' W 000°57'1520.6
2017-Apr-29 10:16N 50°20' W 000°50'620.6
2017-Apr-29 10:00N 50°15' W 000°47'1020.1
2017-Apr-29 09:30N 50°06' W 000°42'1019.6
2017-Apr-29 09:01N 49°56' W 000°36'1019.6
2017-Apr-29 08:31N 49°47' W 000°31'1019.8
2017-Apr-29 08:01N 49°38' W 000°26'1020.0
2017-Apr-29 07:30N 49°29' W 000°20'918.4
2017-Apr-29 07:00N 49°20' W 000°14'3 5.7
2017-Apr-29 06:30N 49°17' W 000°15'0 0.0
2017-Apr-29 06:00N 49°17' W 000°15'0 0.0
2017-Apr-29 05:30N 49°17' W 000°15'0 0.0
2017-Apr-29 05:00N 49°17' W 000°15'0 0.1
2017-Apr-29 04:30N 49°17' W 000°15'714.6
2017-Apr-29 04:00N 49°25' W 000°16'815.0
2017-Apr-29 03:30N 49°32' W 000°20'714.8
2017-Apr-29 03:01N 49°38' W 000°24'714.6
2017-Apr-29 02:30N 49°45' W 000°28'714.9
2017-Apr-29 02:01N 49°52' W 000°32'815.3
2017-Apr-29 01:30N 49°59' W 000°36'815.8
2017-Apr-29 01:00N 50°07' W 000°40'916.0
2017-Apr-29 00:28N 50°15' W 000°43'715.8
2017-Apr-29 00:01N 50°22' W 000°46'816.0
2017-Apr-28 23:30N 50°30' W 000°51'816.0
2017-Apr-28 23:00N 50°38' W 000°54'714.8
2017-Apr-28 22:31N 50°43' W 001°01'612.1
2017-Apr-28 22:01N 50°48' W 001°07'1 1.6
2017-Apr-28 21:31N 50°49' W 001°06'0 0.0
2017-Apr-28 21:01N 50°49' W 001°06'0 0.0
2017-Apr-28 20:31N 50°49' W 001°06'0 0.2
2017-Apr-28 20:00N 50°49' W 001°06'611.3
2017-Apr-28 19:31N 50°44' W 001°02'917.9
2017-Apr-28 19:00N 50°35' W 000°56'917.7
2017-Apr-28 18:30N 50°28' W 000°50'918.2
2017-Apr-28 18:00N 50°19' W 000°44'918.5
2017-Apr-28 17:30N 50°10' W 000°41'918.8
2017-Apr-28 17:01N 50°01' W 000°37'1019.1
2017-Apr-28 16:31N 49°52' W 000°32'1019.2
2017-Apr-28 16:01N 49°43' W 000°27'1019.6
2017-Apr-28 15:30N 49°34' W 000°21'1019.3
2017-Apr-28 15:01N 49°25' W 000°16'8 7.9
2017-Apr-28 14:00N 49°17' W 000°15'0 0.0
2017-Apr-28 13:30N 49°17' W 000°15'0 0.0
2017-Apr-28 13:00N 49°17' W 000°15'4 7.1
2017-Apr-28 12:30N 49°21' W 000°14'1019.5
2017-Apr-28 12:00N 49°30' W 000°20'1019.5
2017-Apr-28 11:31N 49°39' W 000°26'1019.8
2017-Apr-28 11:01N 49°48' W 000°32'1020.0
2017-Apr-28 10:31N 49°57' W 000°37'1020.1
2017-Apr-28 10:00N 50°07' W 000°43'1619.6
2017-Apr-28 09:10N 50°22' W 000°53'317.9
2017-Apr-28 09:00N 50°25' W 000°53'918.5
2017-Apr-28 08:30N 50°34' W 000°54'917.7
2017-Apr-28 08:01N 50°42' W 000°58'815.0
2017-Apr-28 07:30N 50°48' W 001°07'1 2.1
2017-Apr-28 07:00N 50°49' W 001°06'0 0.0
2017-Apr-28 06:30N 50°49' W 001°06'0 0.0
2017-Apr-28 06:00N 50°49' W 001°06'0 0.7
2017-Apr-28 05:30N 50°49' W 001°06'611.7
2017-Apr-28 05:00N 50°44' W 001°02'714.7
2017-Apr-28 04:31N 50°37' W 000°58'714.6
2017-Apr-28 04:00N 50°29' W 000°56'1411.1
2017-Apr-28 02:44N 50°16' W 000°49'311.4
2017-Apr-28 02:30N 50°13' W 000°48'611.6
2017-Apr-28 02:00N 50°08' W 000°44'611.7
2017-Apr-28 01:30N 50°03' W 000°41'611.7
2017-Apr-28 01:01N 49°57' W 000°37'611.4
2017-Apr-28 00:30N 49°52' W 000°34'511.0
2017-Apr-28 00:00N 49°47' W 000°31'510.7
2017-Apr-27 23:30N 49°42' W 000°28'510.6
2017-Apr-27 23:00N 49°37' W 000°25'510.5
2017-Apr-27 22:30N 49°32' W 000°21'510.7
2017-Apr-27 22:01N 49°27' W 000°18'510.8
2017-Apr-27 21:31N 49°22' W 000°15'510.2
2017-Apr-27 21:00N 49°17' W 000°15'0 0.1
2017-Apr-27 20:30N 49°17' W 000°15'0 0.0
2017-Apr-27 20:00N 49°17' W 000°15'0 0.0
2017-Apr-27 19:30N 49°17' W 000°15'2 4.0
2017-Apr-27 19:00N 49°19' W 000°15'1019.2
2017-Apr-27 18:30N 49°29' W 000°18'1019.3
2017-Apr-27 18:00N 49°38' W 000°22'918.7
2017-Apr-27 17:31N 49°47' W 000°28'918.3
2017-Apr-27 17:01N 49°55' W 000°33'917.8
2017-Apr-27 16:30N 50°03' W 000°39'2218.2
2017-Apr-27 15:18N 50°24' W 000°51'619.6
2017-Apr-27 15:01N 50°29' W 000°54'1918.9
2017-Apr-27 14:00N 50°46' W 001°06'2 4.7
2017-Apr-27 13:30N 50°49' W 001°06'0 0.0
2017-Apr-27 13:00N 50°49' W 001°06'0 0.0
2017-Apr-27 12:30N 50°49' W 001°06'0 0.1
2017-Apr-27 12:00N 50°49' W 001°06'4 8.7
2017-Apr-27 11:30N 50°44' W 001°04'918.8
2017-Apr-27 11:00N 50°36' W 000°58'1020.5
2017-Apr-27 10:30N 50°26' W 000°52'1420.3
2017-Apr-27 09:49N 50°13' W 000°44'620.2
2017-Apr-27 09:30N 50°07' W 000°41'1019.6
2017-Apr-27 09:00N 49°58' W 000°37'1019.4
2017-Apr-27 08:31N 49°49' W 000°32'1019.2
2017-Apr-27 08:00N 49°40' W 000°27'918.8
2017-Apr-27 07:30N 49°31' W 000°21'918.3
2017-Apr-27 07:00N 49°23' W 000°16'511.0
2017-Apr-27 06:30N 49°17' W 000°15'0 0.0
2017-Apr-27 06:00N 49°17' W 000°15'0 0.0
2017-Apr-27 05:30N 49°17' W 000°15'0 0.0
2017-Apr-27 05:00N 49°17' W 000°15'0 0.1
2017-Apr-27 04:30N 49°17' W 000°15'612.3
2017-Apr-27 04:00N 49°23' W 000°15'714.1
2017-Apr-27 03:30N 49°30' W 000°19'714.7
2017-Apr-27 03:00N 49°37' W 000°23'714.6
2017-Apr-27 02:30N 49°44' W 000°28'714.6
2017-Apr-27 02:00N 49°50' W 000°32'510.7
2017-Apr-27 01:30N 49°55' W 000°34'510.4
2017-Apr-27 01:00N 50°00' W 000°37'510.6
2017-Apr-27 00:30N 50°05' W 000°40'611.4
2017-Apr-26 23:57N 50°11' W 000°44'1216.2
2017-Apr-26 23:12N 50°23' W 000°50'416.6
2017-Apr-26 22:57N 50°27' W 000°52'716.5
2017-Apr-26 22:31N 50°33' W 000°56'715.0
2017-Apr-26 22:00N 50°41' W 000°58'613.0
2017-Apr-26 21:31N 50°45' W 001°05'3 6.4
2017-Apr-26 21:00N 50°49' W 001°06'0 0.0
2017-Apr-26 20:30N 50°49' W 001°06'0 0.0
2017-Apr-26 20:00N 50°49' W 001°06'0 0.0
2017-Apr-26 19:30N 50°49' W 001°06'0 0.0
2017-Apr-26 19:00N 50°49' W 001°06'0 0.0
2017-Apr-26 18:30N 50°49' W 001°06'0 0.2
2017-Apr-26 18:00N 50°49' W 001°06'3 7.0
2017-Apr-26 17:30N 50°45' W 001°05'815.9
2017-Apr-26 17:01N 50°39' W 000°58'1019.7
2017-Apr-26 16:30N 50°29' W 000°54'1519.1
2017-Apr-26 15:42N 50°15' W 000°46'418.7
2017-Apr-26 15:31N 50°11' W 000°44'918.1
2017-Apr-26 15:01N 50°03' W 000°39'815.8
2017-Apr-26 14:30N 49°55' W 000°35'1616.1
2017-Apr-26 13:31N 49°40' W 000°26'918.8
2017-Apr-26 13:01N 49°31' W 000°21'1020.3
2017-Apr-26 12:31N 49°22' W 000°15'5 9.3
2017-Apr-26 12:01N 49°17' W 000°15'0 0.0
2017-Apr-26 11:28N 49°17' W 000°15'0 0.0
2017-Apr-26 10:58N 49°17' W 000°15'0 0.0
2017-Apr-26 10:28N 49°17' W 000°15'0 0.0
2017-Apr-26 09:58N 49°17' W 000°15'0 0.0
2017-Apr-26 09:28N 49°17' W 000°15'0 0.0
2017-Apr-26 08:58N 49°17' W 000°15'0 0.0
2017-Apr-26 08:28N 49°17' W 000°15'0 0.0
2017-Apr-26 07:58N 49°17' W 000°15'0 0.0
2017-Apr-26 07:28N 49°17' W 000°15'0 0.0
2017-Apr-26 06:58N 49°17' W 000°15'0 0.0
2017-Apr-26 06:28N 49°17' W 000°15'0 0.0
2017-Apr-26 06:00N 49°17' W 000°15'0 0.0
2017-Apr-26 05:30N 49°17' W 000°15'3 5.6
2017-Apr-26 05:00N 49°20' W 000°14'815.9
2017-Apr-26 04:30N 49°28' W 000°17'815.3
2017-Apr-26 04:00N 49°35' W 000°21'714.9
2017-Apr-26 03:30N 49°42' W 000°25'815.0
2017-Apr-26 03:00N 49°49' W 000°30'815.0
2017-Apr-26 02:30N 49°56' W 000°34'714.8
2017-Apr-26 02:00N 50°03' W 000°38'714.7
2017-Apr-26 01:30N 50°10' W 000°43'1115.2
2017-Apr-26 00:48N 50°20' W 000°49'615.8
2017-Apr-26 00:26N 50°25' W 000°51'614.7
2017-Apr-26 00:00N 50°31' W 000°55'714.0
2017-Apr-25 23:30N 50°38' W 000°58'612.7
2017-Apr-25 23:00N 50°44' W 001°02'510.7
2017-Apr-25 22:30N 50°48' W 001°07'1 1.7
2017-Apr-25 21:58N 50°49' W 001°06'0 0.0
2017-Apr-25 21:28N 50°49' W 001°06'0 0.0
2017-Apr-25 20:58N 50°49' W 001°06'0 0.1
2017-Apr-25 20:30N 50°49' W 001°06'4 7.9
2017-Apr-25 20:00N 50°45' W 001°05'510.8
2017-Apr-25 19:30N 50°42' W 000°58'611.4
2017-Apr-25 19:00N 50°36' W 000°57'919.0
2017-Apr-25 18:31N 50°27' W 000°51'1319.6
2017-Apr-25 17:50N 50°15' W 000°43'720.1
2017-Apr-25 17:30N 50°09' W 000°41'1020.2
2017-Apr-25 17:00N 49°59' W 000°35'1020.1
2017-Apr-25 16:31N 49°50' W 000°30'1020.1
2017-Apr-25 16:01N 49°40' W 000°25'918.8
2017-Apr-25 15:31N 49°32' W 000°19'1019.1
2017-Apr-25 15:01N 49°22' W 000°15'510.1
2017-Apr-25 14:30N 49°17' W 000°15'0 0.0
2017-Apr-25 13:30N 49°17' W 000°15'0 0.0
2017-Apr-25 13:00N 49°17' W 000°15'1 1.4
2017-Apr-25 12:31N 49°18' W 000°15'918.1
2017-Apr-25 12:01N 49°27' W 000°17'1019.7
2017-Apr-25 11:31N 49°37' W 000°20'918.7
2017-Apr-25 11:01N 49°46' W 000°24'1019.1
2017-Apr-25 10:31N 49°55' W 000°28'1019.3
2017-Apr-25 10:00N 50°04' W 000°33'2320.1
2017-Apr-25 08:53N 50°25' W 000°46'821.7
2017-Apr-25 08:31N 50°32' W 000°53'1020.6
2017-Apr-25 08:01N 50°41' W 001°00'815.8
2017-Apr-25 07:30N 50°48' W 001°07'1 2.2
2017-Apr-25 07:00N 50°49' W 001°06'0 0.0
2017-Apr-25 06:30N 50°49' W 001°06'0 0.0
2017-Apr-25 06:00N 50°49' W 001°06'0 0.5
2017-Apr-25 05:30N 50°49' W 001°06'510.0
2017-Apr-25 05:00N 50°44' W 001°03'713.0
2017-Apr-25 04:30N 50°38' W 000°58'815.4
2017-Apr-25 04:00N 50°31' W 000°54'815.4
2017-Apr-25 03:28N 50°23' W 000°50'815.3
2017-Apr-25 02:58N 50°16' W 000°45'611.3
2017-Apr-25 02:29N 50°11' W 000°43'510.3
2017-Apr-25 02:00N 50°06' W 000°41'510.6
2017-Apr-25 01:30N 50°01' W 000°38'611.0
2017-Apr-25 01:00N 49°56' W 000°35'611.2
2017-Apr-25 00:30N 49°51' W 000°31'611.3
2017-Apr-25 00:00N 49°46' W 000°29'611.4
2017-Apr-24 23:30N 49°40' W 000°26'611.1
2017-Apr-24 23:00N 49°35' W 000°23'510.3
2017-Apr-24 22:30N 49°30' W 000°20'510.2
2017-Apr-24 22:00N 49°26' W 000°17'510.9
2017-Apr-24 21:30N 49°20' W 000°14'3 6.0
2017-Apr-24 21:00N 49°17' W 000°15'0 0.0
2017-Apr-24 20:30N 49°17' W 000°15'0 0.0
2017-Apr-24 20:00N 49°17' W 000°15'0 0.0
2017-Apr-24 19:30N 49°17' W 000°15'1 2.9
2017-Apr-24 19:01N 49°19' W 000°15'1019.1
2017-Apr-24 18:31N 49°28' W 000°17'1019.7
2017-Apr-24 18:01N 49°37' W 000°22'917.6
2017-Apr-24 17:31N 49°46' W 000°27'917.7
2017-Apr-24 17:00N 49°54' W 000°32'1019.4
2017-Apr-24 16:31N 50°03' W 000°37'1019.9
2017-Apr-24 16:00N 50°12' W 000°43'1019.7
2017-Apr-24 15:30N 50°21' W 000°49'1019.3
2017-Apr-24 15:00N 50°31' W 000°53'918.5
2017-Apr-24 14:31N 50°39' W 000°58'1110.6
2017-Apr-24 13:30N 50°49' W 001°06'0 0.0
2017-Apr-24 13:00N 50°49' W 001°06'0 0.0
2017-Apr-24 12:30N 50°49' W 001°06'0 0.1
2017-Apr-24 12:00N 50°49' W 001°06'4 9.0
2017-Apr-24 11:30N 50°44' W 001°04'918.2
2017-Apr-24 11:00N 50°37' W 000°55'1019.1
2017-Apr-24 10:30N 50°30' W 000°46'1019.4
2017-Apr-24 10:00N 50°21' W 000°38'919.0
2017-Apr-24 09:30N 50°12' W 000°33'919.0
2017-Apr-24 09:00N 50°03' W 000°30'918.9
2017-Apr-24 08:30N 49°54' W 000°26'918.8
2017-Apr-24 08:00N 49°45' W 000°22'918.6
2017-Apr-24 07:30N 49°36' W 000°19'919.0
2017-Apr-24 07:00N 49°27' W 000°16'917.8
2017-Apr-24 06:30N 49°18' W 000°15'0 0.9
2017-Apr-24 06:00N 49°17' W 000°15'0 0.0
2017-Apr-24 05:30N 49°17' W 000°15'0 0.0
2017-Apr-24 05:00N 49°17' W 000°15'0 0.2
2017-Apr-24 04:31N 49°17' W 000°15'713.7
2017-Apr-24 04:01N 49°24' W 000°14'815.4
2017-Apr-24 03:31N 49°31' W 000°18'815.4
2017-Apr-24 03:01N 49°39' W 000°22'815.0
2017-Apr-24 02:31N 49°45' W 000°28'815.3
2017-Apr-24 02:01N 49°52' W 000°34'815.3
2017-Apr-24 01:31N 49°59' W 000°38'815.1
2017-Apr-24 01:01N 50°06' W 000°42'815.3
2017-Apr-24 00:31N 50°13' W 000°46'815.5
2017-Apr-24 00:01N 50°21' W 000°49'815.5
2017-Apr-23 23:30N 50°28' W 000°53'815.1
2017-Apr-23 23:01N 50°35' W 000°56'714.8
2017-Apr-23 22:31N 50°42' W 001°01'713.2
2017-Apr-23 22:00N 50°48' W 001°07'1 2.4
2017-Apr-23 21:30N 50°49' W 001°06'0 0.0
2017-Apr-23 21:00N 50°49' W 001°06'0 0.0
2017-Apr-23 20:30N 50°49' W 001°06'0 0.2
2017-Apr-23 20:01N 50°49' W 001°06'4 8.7
2017-Apr-23 19:31N 50°44' W 001°04'918.4
2017-Apr-23 19:00N 50°36' W 000°57'1020.3
2017-Apr-23 18:30N 50°27' W 000°53'1020.3
2017-Apr-23 18:00N 50°17' W 000°47'1020.0
2017-Apr-23 17:30N 50°08' W 000°41'1020.0
2017-Apr-23 17:00N 49°58' W 000°37'1019.8
2017-Apr-23 16:30N 49°49' W 000°31'1019.9
2017-Apr-23 16:00N 49°40' W 000°26'1020.4
2017-Apr-23 15:30N 49°30' W 000°20'1020.0
2017-Apr-23 15:00N 49°21' W 000°15'3 3.5
2017-Apr-23 14:00N 49°17' W 000°15'0 0.0
2017-Apr-23 13:30N 49°17' W 000°15'0 0.0
2017-Apr-23 13:00N 49°17' W 000°15'3 5.3
2017-Apr-23 12:31N 49°20' W 000°14'917.9
2017-Apr-23 12:01N 49°29' W 000°18'918.9
2017-Apr-23 11:31N 49°38' W 000°23'918.8
2017-Apr-23 11:01N 49°46' W 000°28'918.6
2017-Apr-23 10:30N 49°55' W 000°32'1018.6
2017-Apr-23 10:00N 50°04' W 000°36'1418.7
2017-Apr-23 09:15N 50°17' W 000°44'519.0
2017-Apr-23 09:00N 50°22' W 000°47'1020.5
2017-Apr-23 08:31N 50°31' W 000°55'1020.3
2017-Apr-23 08:01N 50°40' W 000°60'817.0
2017-Apr-23 07:30N 50°47' W 001°07'1 2.6
2017-Apr-23 07:00N 50°49' W 001°06'0 0.0
2017-Apr-23 06:30N 50°49' W 001°06'0 0.0
2017-Apr-23 06:00N 50°49' W 001°06'0 0.2
2017-Apr-23 05:30N 50°49' W 001°06'5 9.2
2017-Apr-23 05:01N 50°44' W 001°04'713.3
2017-Apr-23 04:31N 50°39' W 000°59'815.6
2017-Apr-23 04:00N 50°31' W 000°55'810.6
2017-Apr-23 03:16N 50°24' W 000°52'310.9
2017-Apr-23 03:00N 50°21' W 000°50'711.0
2017-Apr-23 02:19N 50°14' W 000°47'411.1
2017-Apr-23 02:00N 50°10' W 000°45'611.2
2017-Apr-23 01:30N 50°05' W 000°42'611.3
2017-Apr-23 01:00N 49°60' W 000°40'611.5
2017-Apr-23 00:30N 49°54' W 000°36'611.9
2017-Apr-23 00:00N 49°49' W 000°33'611.9
2017-Apr-22 23:30N 49°43' W 000°29'611.8
2017-Apr-22 23:00N 49°38' W 000°26'611.9
2017-Apr-22 22:30N 49°32' W 000°22'611.9
2017-Apr-22 22:00N 49°27' W 000°18'611.8
2017-Apr-22 21:30N 49°21' W 000°15'4 8.3
2017-Apr-22 21:00N 49°17' W 000°15'0 0.0
2017-Apr-22 20:30N 49°17' W 000°15'0 0.0
2017-Apr-22 20:00N 49°17' W 000°15'0 0.0
2017-Apr-22 19:30N 49°17' W 000°15'3 6.6
2017-Apr-22 19:00N 49°21' W 000°14'1020.2
2017-Apr-22 18:30N 49°31' W 000°16'917.2
2017-Apr-22 18:00N 49°39' W 000°20'917.2
2017-Apr-22 17:30N 49°47' W 000°24'917.3
2017-Apr-22 17:00N 49°55' W 000°28'917.7
2017-Apr-22 16:30N 50°04' W 000°33'918.6
2017-Apr-22 16:00N 50°13' W 000°38'1019.9
2017-Apr-22 15:30N 50°21' W 000°46'1019.6
2017-Apr-22 15:00N 50°30' W 000°53'1019.2
2017-Apr-22 14:30N 50°39' W 000°57'1111.3
2017-Apr-22 13:30N 50°49' W 001°06'0 0.0
2017-Apr-22 13:00N 50°49' W 001°06'0 0.0
2017-Apr-22 12:30N 50°49' W 001°06'0 0.2
2017-Apr-22 12:01N 50°49' W 001°06'4 7.8
2017-Apr-22 11:31N 50°45' W 001°05'816.8
2017-Apr-22 11:01N 50°38' W 000°58'1019.2
2017-Apr-22 10:30N 50°29' W 000°51'1819.1
2017-Apr-22 09:35N 50°13' W 000°39'219.3
2017-Apr-22 09:30N 50°12' W 000°39'1019.5
2017-Apr-22 09:00N 50°03' W 000°33'1019.6
2017-Apr-22 08:30N 49°53' W 000°28'1020.2
2017-Apr-22 08:01N 49°44' W 000°23'1020.5
2017-Apr-22 07:30N 49°34' W 000°19'1020.6
2017-Apr-22 07:00N 49°24' W 000°16'713.0
2017-Apr-22 06:30N 49°17' W 000°15'0 0.0
2017-Apr-22 06:00N 49°17' W 000°15'0 0.0
2017-Apr-22 05:30N 49°17' W 000°15'0 0.0
2017-Apr-22 05:00N 49°17' W 000°15'0 0.1
2017-Apr-22 04:31N 49°17' W 000°15'714.0
2017-Apr-22 04:01N 49°24' W 000°14'815.2
2017-Apr-22 03:30N 49°31' W 000°19'815.6
2017-Apr-22 03:00N 49°38' W 000°25'815.5
2017-Apr-22 02:31N 49°45' W 000°31'815.2
2017-Apr-22 02:01N 49°52' W 000°35'815.3
2017-Apr-22 01:31N 49°59' W 000°40'815.3
2017-Apr-22 01:00N 50°06' W 000°44'815.3
2017-Apr-22 00:31N 50°13' W 000°48'815.4
2017-Apr-22 00:00N 50°21' W 000°51'815.4
2017-Apr-21 23:30N 50°28' W 000°54'815.1
2017-Apr-21 23:00N 50°35' W 000°57'815.5
2017-Apr-21 22:31N 50°43' W 001°02'612.4
2017-Apr-21 22:01N 50°48' W 001°07'1 2.0
2017-Apr-21 21:31N 50°49' W 001°06'0 0.0
2017-Apr-21 21:01N 50°49' W 001°06'0 0.0
2017-Apr-21 20:30N 50°49' W 001°06'0 0.5
2017-Apr-21 20:01N 50°49' W 001°06'612.0
2017-Apr-21 19:30N 50°43' W 001°02'918.5
2017-Apr-21 19:00N 50°35' W 000°55'1019.1
2017-Apr-21 18:30N 50°26' W 000°49'1019.0
2017-Apr-21 18:00N 50°17' W 000°46'918.9
2017-Apr-21 17:30N 50°08' W 000°42'918.9
2017-Apr-21 17:00N 49°59' W 000°37'918.7
2017-Apr-21 16:30N 49°51' W 000°31'918.9
2017-Apr-21 16:00N 49°42' W 000°26'918.5
2017-Apr-21 15:30N 49°33' W 000°21'918.8
2017-Apr-21 15:00N 49°24' W 000°16'713.7
2017-Apr-21 14:31N 49°17' W 000°15'0 0.0
2017-Apr-21 13:30N 49°17' W 000°15'0 0.0
2017-Apr-21 13:00N 49°17' W 000°15'2 3.3
2017-Apr-21 12:30N 49°19' W 000°15'917.7
2017-Apr-21 12:01N 49°28' W 000°18'919.0
2017-Apr-21 11:31N 49°36' W 000°23'918.9
2017-Apr-21 11:00N 49°45' W 000°27'1019.1
2017-Apr-21 10:30N 49°55' W 000°32'1018.9
2017-Apr-21 10:00N 50°04' W 000°36'918.8
2017-Apr-21 09:30N 50°12' W 000°41'1019.4
2017-Apr-21 09:01N 50°21' W 000°48'1121.1
2017-Apr-21 08:30N 50°31' W 000°53'1020.0
2017-Apr-21 08:00N 50°40' W 000°59'816.9
2017-Apr-21 07:31N 50°47' W 001°07'1 3.0
2017-Apr-21 07:00N 50°49' W 001°06'0 0.0
2017-Apr-21 06:31N 50°49' W 001°06'0 0.0
2017-Apr-21 06:01N 50°49' W 001°06'0 0.1
2017-Apr-21 05:31N 50°49' W 001°06'3 6.6
2017-Apr-21 05:01N 50°45' W 001°05'815.4
2017-Apr-21 04:31N 50°39' W 000°59'815.6
2017-Apr-21 04:00N 50°32' W 000°54'612.0
2017-Apr-21 03:30N 50°26' W 000°52'611.6
2017-Apr-21 03:01N 50°20' W 000°49'611.5
2017-Apr-21 02:30N 50°15' W 000°46'611.5
2017-Apr-21 02:00N 50°09' W 000°43'611.8
2017-Apr-21 01:30N 50°04' W 000°41'611.9
2017-Apr-21 01:00N 49°58' W 000°38'612.1
2017-Apr-21 00:31N 49°52' W 000°36'612.2
2017-Apr-21 00:00N 49°47' W 000°32'612.0
2017-Apr-20 23:31N 49°41' W 000°29'612.1
2017-Apr-20 23:00N 49°35' W 000°25'612.1
2017-Apr-20 22:31N 49°30' W 000°21'612.2
2017-Apr-20 22:00N 49°24' W 000°17'611.9
2017-Apr-20 21:30N 49°19' W 000°15'1 2.8
2017-Apr-20 21:00N 49°17' W 000°15'0 0.0
2017-Apr-20 20:31N 49°17' W 000°15'0 0.0
2017-Apr-20 20:01N 49°17' W 000°15'0 0.0
2017-Apr-20 19:31N 49°17' W 000°15'4 7.4
2017-Apr-20 19:00N 49°21' W 000°14'918.9
2017-Apr-20 18:30N 49°30' W 000°19'816.9
2017-Apr-20 18:00N 49°38' W 000°22'817.0
2017-Apr-20 17:30N 49°47' W 000°24'817.0
2017-Apr-20 17:01N 49°55' W 000°28'918.9
2017-Apr-20 16:31N 50°03' W 000°34'1920.1
2017-Apr-20 15:33N 50°21' W 000°47'219.7
2017-Apr-20 15:28N 50°22' W 000°48'919.4
2017-Apr-20 15:00N 50°30' W 000°53'  

Dump ship's entire track history